Home > Products > Valid Products > MTR

000
SAUS44 KLIX 030152
MTRBVE
METAR KBVE 030151Z AUTO 00000KT 10SM CLR 28/24 A3004 RMK AO2 SLP172
T02780244





000
SAUS44 KLIX 030052
MTRBVE
METAR KBVE 030051Z AUTO 00000KT 10SM CLR 28/24 A3001 RMK AO2 SLP163
T02830244





000
SAUS44 KLIX 022352
MTRBVE
METAR KBVE 022351Z AUTO 13003KT 10SM CLR 29/24 A3000 RMK AO2 SLP158
60025 T02940244 10306 20256 55003





000
SAUS44 KLIX 022252
MTRBVE
METAR KBVE 022251Z AUTO 10004KT 10SM CLR 29/24 A2999 RMK AO2 SLP155
T02940244





000
SAUS44 KLIX 022152
MTRBVE
METAR KBVE 022151Z AUTO 00000KT 10SM CLR 29/24 A3000 RMK AO2 RAE33
SLP159 P0004 T02940239





000
SAUS44 KLIX 022058
MTRBVE
SPECI KBVE 022057Z AUTO 30004KT 3SM -RA BR SCT046 BKN075 OVC100
26/24 A3001 RMK AO2 P0002 T02610239





000
SAUS44 KLIX 022053
MTRBVE
METAR KBVE 022051Z AUTO 28005KT 1SM +RA BR SCT046 BKN075 OVC100
26/24 A3001 RMK AO2 RAB03 SLP161 P0017 60021 T02610239 58019





000
SAUS44 KLIX 022043
MTRBVE
SPECI KBVE 022041Z AUTO 26007KT 1 1/2SM +RA BKN050 BKN070 OVC110
26/23 A3002 RMK AO2 VIS 1/2V5 RAB03 P0005 T02610233





000
SAUS44 KLIX 022027
MTRBVE
SPECI KBVE 022026Z AUTO 27013G19KT 6SM -RA SCT027 SCT050 BKN110
26/23 A3002 RMK AO2 RAB03 P0000 T02560228





000
SAUS44 KLIX 022004
MTRBVE
SPECI KBVE 022003Z AUTO 31010KT 9SM -RA BKN025 OVC030 26/24 A3004
RMK AO2 RAB03 P0000 T02610239





000
SAUS44 KLIX 021952
MTRBVE
METAR KBVE 021951Z AUTO 30010KT 10SM OVC030 27/23 A3004 RMK AO2
RAE1855B27E48 SLP170 P0000 T02670233





000
SAUS44 KLIX 021852
MTRBVE
METAR KBVE 021851Z AUTO 32005KT 10SM -RA BKN032 OVC046 29/25 A3004
RMK AO2 RAE1758B35 SLP173 P0004 T02890250





000
SAUS44 KLIX 021839
MTRBVE
SPECI KBVE 021838Z AUTO 21003KT 4SM -RA OVC030 30/25 A3005 RMK AO2
RAE1758B35 P0000 T03000250





000
SAUS44 KLIX 021752
MTRBVE
METAR KBVE 021751Z AUTO 00000KT 7SM -RA BKN028 BKN048 OVC070 30/25
A3007 RMK AO2 RAB32 SLP181 P0003 60003 T03000250 10317 20272 58004





000
SAUS44 KLIX 021719
MTRBVE
SPECI KBVE 021718Z AUTO 17003KT 10SM BKN027 BKN036 BKN060 31/24
A3008 RMK AO2 T03060244





000
SAUS44 KLIX 021652
MTRBVE
METAR KBVE 021651Z AUTO 00000KT 10SM FEW030 BKN038 31/24 A3008 RMK
AO2 SLP184 T03110244





000
SAUS44 KLIX 021553
MTRBVE
METAR KBVE 021551Z AUTO 12006KT 10SM FEW035 31/24 A3009 RMK AO2
SLP189 T03110239





000
SAUS44 KLIX 021452
MTRBVE
METAR KBVE 021451Z AUTO 13005KT 10SM CLR 31/25 A3008 RMK AO2 SLP185
T03060250 51008





000
SAUS44 KLIX 021352
MTRBVE
METAR KBVE 021351Z AUTO 10006KT 10SM SCT018 30/26 A3007 RMK AO2
SLP183 T03000256





000
SAUS44 KLIX 021252
MTRBVE
METAR KBVE 021251Z AUTO 00000KT 10SM FEW021 29/26 A3007 RMK AO2
SLP182 T02890261





000
SAUS44 KLIX 021241
MTRBVE
SPECI KBVE 021240Z AUTO 12003KT 10SM FEW021 29/26 A3006 RMK AO2
T02890261





000
SAUS44 KLIX 021234
MTRBVE
SPECI KBVE 021233Z AUTO 00000KT 10SM SCT021 BKN026 28/26 A3006 RMK
AO2 T02830256





000
SAUS44 KLIX 021152
MTRBVE
METAR KBVE 021151Z AUTO 13003KT 10SM CLR 27/26 A3005 RMK AO2 SLP177
70015 T02720256 10283 20267 51015





000
SAUS44 KLIX 021120
MTRBVE
SPECI KBVE 021118Z AUTO 14004KT 10SM FEW019 27/26 A3004 RMK AO2
T02720256





000
SAUS44 KLIX 021104
MTRBVE
SPECI KBVE 021103Z AUTO 14005KT 10SM SCT019 BKN027 28/26 A3004 RMK
AO2 T02780256





000
SAUS44 KLIX 021052
MTRBVE
METAR KBVE 021051Z AUTO 13004KT 10SM SCT021 28/26 A3004 RMK AO2
SLP172 T02780256





000
SAUS44 KLIX 020952
MTRBVE
METAR KBVE 020951Z AUTO 13003KT 10SM CLR 28/25 A3003 RMK AO2 SLP168
T02780250





000
SAUS44 KLIX 020852
MTRBVE
METAR KBVE 020851Z AUTO 17006KT 10SM CLR 28/25 A3001 RMK AO2 SLP162
T02830250 56007





000
SAUS44 KLIX 020752
MTRBVE
METAR KBVE 020751Z AUTO 18006KT 10SM CLR 28/25 A3001 RMK AO2 SLP162
T02830250





000
SAUS44 KLIX 020652
MTRBVE
METAR KBVE 020651Z AUTO 14004KT 10SM CLR 28/26 A3001 RMK AO2 SLP161
T02780261





000
SAUS44 KLIX 020553
MTRBVE
METAR KBVE 020551Z AUTO 13006KT 10SM CLR 28/26 A3003 RMK AO2 SLP169
T02780256 10289 20272 403220267 58009





000
SAUS44 KLIX 020452
MTRBVE
METAR KBVE 020451Z AUTO 13004KT 10SM CLR 28/26 A3005 RMK AO2 SLP175
T02780256





000
SAUS44 KLIX 020352
MTRBVE
METAR KBVE 020351Z AUTO 12003KT 10SM CLR 28/26 A3005 RMK AO2 SLP176
T02780256





000
SAUS44 KLIX 020352
MTRBVE
METAR KBVE 020351Z AUTO 12003KT 10SM CLR 28/26 A3005 RMK AO2 SLP176
T02780256





000
SAUS44 KLIX 020252
MTRBVE
METAR KBVE 020251Z AUTO 12003KT 10SM CLR 28/25 A3006 RMK AO2 SLP179
T02780250 51017





000
SAUS44 KLIX 020153
MTRBVE
METAR KBVE 020151Z AUTO 14004KT 10SM CLR 28/25 A3005 RMK AO2 SLP176
T02780250





000
SAUS44 KLIX 020052
MTRBVE
METAR KBVE 020051Z AUTO 13006KT 10SM CLR 28/24 A3003 RMK AO2 SLP170
T02780244





000
SAUS44 KLIX 012352
MTRBVE
METAR KBVE 012351Z AUTO 15008KT 10SM FEW022 29/23 A3001 RMK AO2
SLP161 T02890233 10322 20289 56004





000
SAUS44 KLIX 012252
MTRBVE
METAR KBVE 012251Z AUTO 15007KT 10SM CLR 30/24 A3001 RMK AO2 SLP161
T03000244





000
SAUS44 KLIX 012152
MTRBVE
METAR KBVE 012151Z AUTO 18011KT 10SM FEW024 31/26 A3001 RMK AO2
SLP163 T03060256





000
SAUS44 KLIX 012142
MTRBVE
SPECI KBVE 012141Z AUTO 16010KT 10SM FEW024 29/26 A3001 RMK AO2
T02940256





000
SAUS44 KLIX 012135
MTRBVE
SPECI KBVE 012134Z AUTO 17011KT 10SM SCT023 BKN029 31/26 A3001 RMK
AO2 T03060256





000
SAUS44 KLIX 012052
MTRBVE
METAR KBVE 012051Z AUTO 18010KT 10SM SCT029 SCT038 BKN046 32/25
A3002 RMK AO2 SLP165 T03170250 56010





000
SAUS44 KLIX 012047
MTRBVE
SPECI KBVE 012046Z AUTO 17011KT 10SM BKN029 BKN038 BKN046 32/25
A3002 RMK AO2





000
SAUS44 KLIX 011952
MTRBVE
METAR KBVE 011951Z AUTO 18010KT 10SM SCT023 BKN033 BKN042 30/26
A3003 RMK AO2 SLP168 T03000256





000
SAUS44 KLIX 011909
MTRBVE
SPECI KBVE 011908Z AUTO 17011KT 10SM SCT028 BKN040 32/24 A3004 RMK
AO2 T03170244





000
SAUS44 KLIX 011901
MTRBVE
SPECI KBVE 011901Z AUTO 16011G16KT 10SM BKN028 BKN040 32/24 A3005
RMK AO2 T03170244





000
SAUS44 KLIX 011852
MTRBVE
METAR KBVE 011851Z AUTO 14011KT 10SM SCT028 BKN036 BKN047 31/25
A3005 RMK AO2 SLP176 T03110250





000
SAUS44 KLIX 011752
MTRBVE
METAR KBVE 011751Z AUTO 15010KT 10SM CLR 31/25 A3006 RMK AO2 SLP179
60015 T03110250 10311 20267 58003





000
SAUS44 KLIX 011652
MTRBVE
METAR KBVE 011651Z AUTO 12006KT 10SM FEW032 FEW120 28/26 A3008 RMK
AO2 RAE30 SLP184 P0007 T02830256





000
SAUS44 KLIX 011603
MTRBVE
SPECI KBVE 011602Z AUTO 12010G19KT 3SM -RA SCT046 BKN070 OVC110
27/24 A3008 RMK AO2 P0006 T02670239





000
SAUS44 KLIX 011552
MTRBVE
METAR KBVE 011551Z AUTO 15010G16KT 1 3/4SM +RA SCT038 BKN048 BKN065
27/24 A3008 RMK AO2 RAB07 SLP186 P0008 T02720244





000
SAUS44 KLIX 011452
MTRBVE
METAR KBVE 011451Z AUTO 18011KT 10SM FEW025 FEW031 28/25 A3007 RMK
AO2 SLP182 T02830250 51010





000
SAUS44 KLIX 011352
MTRBVE
METAR KBVE 011351Z AUTO 13008KT 10SM CLR 30/25 A3006 RMK AO2 SLP179
T03000250





000
SAUS44 KLIX 011252
MTRBVE
METAR KBVE 011251Z AUTO 12006KT 10SM CLR 29/25 A3005 RMK AO2 SLP176
T02890250





000
SAUS44 KLIX 011152
MTRBVE
METAR KBVE 011151Z AUTO 13005KT 10SM CLR 28/25 A3004 RMK AO2 SLP172
T02830250 10283 20272 53016





000
SAUS44 KLIX 011052
MTRBVE
METAR KBVE 011051Z AUTO 12004KT 10SM CLR 28/26 A3002 RMK AO2 SLP166
T02780256





000
SAUS44 KLIX 010952
MTRBVE
METAR KBVE 010951Z AUTO 13005KT 10SM CLR 28/26 A3001 RMK AO2 SLP160
T02780256





000
SAUS44 KLIX 010852
MTRBVE
METAR KBVE 010851Z AUTO 12005KT 10SM CLR 28/25 A2999 RMK AO2 SLP156
T02780250 56017





000
SAUS44 KLIX 010752
MTRBVE
METAR KBVE 010751Z AUTO 13006KT 10SM CLR 28/26 A3001 RMK AO2 SLP161
T02830256





000
SAUS44 KLIX 010652
MTRBVE
METAR KBVE 010651Z AUTO 13006KT 10SM CLR 28/26 A3003 RMK AO2 SLP167
T02830256





000
SAUS44 KLIX 010552
MTRBVE
METAR KBVE 010551Z AUTO 13005KT 10SM CLR 28/26 A3004 RMK AO2 SLP173
T02830256 10300 20283 403220272 58008





000
SAUS44 KLIX 010452
MTRBVE
METAR KBVE 010451Z AUTO 13006KT 10SM CLR 28/26 A3005 RMK AO2 SLP176
T02830256





000
SAUS44 KLIX 010352
MTRBVE
METAR KBVE 010351Z AUTO 13005KT 10SM CLR 28/26 A3007 RMK AO2 SLP181
T02830256





000
SAUS44 KLIX 010252
MTRBVE
METAR KBVE 010251Z AUTO 12004KT 10SM CLR 28/26 A3007 RMK AO2 SLP181
T02830256 53006





000
SAUS44 KLIX 010152
MTRBVE
METAR KBVE 010151Z AUTO 13005KT 10SM CLR 29/25 A3006 RMK AO2 SLP179
T02890250





000
SAUS44 KLIX 010052
MTRBVE
METAR KBVE 010051Z AUTO 13005KT 10SM CLR 29/24 A3005 RMK AO2 SLP176
T02890244





000
SAUS44 KLIX 312353
MTRBVE
METAR KBVE 312351Z AUTO 14007KT 10SM CLR 30/24 A3005 RMK AO2 SLP175
T03000244 10322 20300 56002





000
SAUS44 KLIX 312252
MTRBVE
METAR KBVE 312251Z AUTO 14009KT 10SM CLR 31/24 A3005 RMK AO2 SLP174
T03060239





000
SAUS44 KLIX 312152
MTRBVE
METAR KBVE 312151Z AUTO 12008KT 10SM FEW033 32/24 A3005 RMK AO2
SLP174 T03170244





000
SAUS44 KLIX 312052
MTRBVE
METAR KBVE 312051Z AUTO 11009KT 10SM FEW029 31/25 A3005 RMK AO2
SLP176 T03110250 56014





000
SAUS44 KLIX 311952
MTRBVE
METAR KBVE 311951Z AUTO 12008KT 10SM CLR 32/24 A3007 RMK AO2 SLP180
T03170244





000
SAUS44 KLIX 311852
MTRBVE
METAR KBVE 311851Z AUTO 12009KT 10SM FEW030 32/24 A3008 RMK AO2
SLP185 T03170244





000
SAUS44 KLIX 311752
MTRBVE
METAR KBVE 311751Z AUTO 11008KT 10SM FEW030 32/24 A3009 RMK AO2
SLP190 T03170239 10322 20272 58003





000
SAUS44 KLIX 311653
MTRBVE
METAR KBVE 311651Z AUTO 12007KT 080V140 10SM SCT033 31/24 A3010 RMK
AO2 SLP193 T03110239





000
SAUS44 KLIX 311627
MTRBVE
SPECI KBVE 311626Z AUTO 11009KT 10SM SCT028 BKN034 31/24 A3011 RMK
AO2 T03110244





000
SAUS44 KLIX 311618
MTRBVE
SPECI KBVE 311617Z AUTO 12008KT 10SM BKN028 BKN036 BKN049 31/25
A3011 RMK AO2 T03110250





000
SAUS44 KLIX 311552
MTRBVE
METAR KBVE 311551Z AUTO 12007KT 10SM SCT026 BKN032 BKN039 31/25
A3010 RMK AO2 SLP194 T03060250





000
SAUS44 KLIX 311452
MTRBVE
METAR KBVE 311451Z AUTO 11006KT 10SM FEW020 FEW031 31/25 A3010 RMK
AO2 SLP193 T03060250 53009





000
SAUS44 KLIX 311352
MTRBVE
METAR KBVE 311351Z AUTO 10005KT 9SM BKN033 30/26 A3009 RMK AO2
SLP188 T03000256





000
SAUS44 KLIX 311253
MTRBVE
METAR KBVE 311251Z AUTO 09003KT 8SM BKN030 29/26 A3008 RMK AO2
SLP187 T02890261





000
SAUS44 KLIX 311152
MTRBVE
METAR KBVE 311151Z AUTO 11003KT 8SM FEW028 27/25 A3007 RMK AO2
SLP183 T02720250 10283 20272 51015





000
SAUS44 KLIX 311053
MTRBVE
METAR KBVE 311051Z AUTO 14003KT 9SM FEW022 27/26 A3006 RMK AO2
SLP180 T02720256





000
SAUS44 KLIX 310952
MTRBVE
METAR KBVE 310951Z AUTO 13005KT 9SM CLR 27/26 A3004 RMK AO2 SLP172
T02720256





000
SAUS44 KLIX 310940
MTRBVE
SPECI KBVE 310939Z AUTO 13005KT 8SM SCT021 27/26 A3004 RMK AO2
T02720256





000
SAUS44 KLIX 310852
MTRBVE
METAR KBVE 310851Z AUTO 14003KT 8SM OVC022 28/26 A3003 RMK AO2
SLP168 T02780261 56008





000
SAUS44 KLIX 310752
MTRBVE
METAR KBVE 310751Z AUTO 14006KT 8SM FEW019 OVC024 28/26 A3003 RMK
AO2 SLP169 T02830261





000
SAUS44 KLIX 310653
MTRBVE
METAR KBVE 310651Z AUTO 13007KT 8SM OVC027 28/27 A3004 RMK AO2
SLP172 T02830267





000
SAUS44 KLIX 310552
MTRBVE
METAR KBVE 310551Z AUTO 13004KT 9SM FEW021 BKN025 OVC034 28/27 A3005
RMK AO2 SLP176 T02830267 10300 20283 403220256 58005





000
SAUS44 KLIX 310521
MTRBVE
SPECI KBVE 310520Z AUTO 13003KT 9SM SCT020 BKN028 OVC036 28/27 A3005
RMK AO2 T02830267





000
SAUS44 KLIX 310452
MTRBVE
METAR KBVE 310451Z AUTO 14003KT 9SM OVC030 28/27 A3006 RMK AO2
SLP178 T02830267





000
SAUS44 KLIX 310352
MTRBVE
METAR KBVE 310351Z AUTO 13003KT 10SM BKN032 28/27 A3007 RMK AO2
SLP182 T02830267





000
SAUS44 KLIX 310252
MTRBVE
METAR KBVE 310251Z AUTO 14004KT 10SM SCT031 28/27 A3007 RMK AO2
SLP181 T02830267 53011





    US Dept of Commerce
    National Oceanic and Atmospheric Administration
    National Weather Service
    1325 East West Highway
    Silver Spring, MD 20910
    Page Author: NWS Internet Services Team
Disclaimer
Information Quality
Credits
Glossary
Privacy Policy
Freedom of Information Act (FOIA)
About Us
Career Opportunities